sensor_id;sensor_type;location;lat;lon;timestamp;P1;durP1;ratioP1;P2;durP2;ratioP2
68212;SDS011;55035;47.792;8.724;2022-07-23T00:00:10;17.75;;;12.40;;
68212;SDS011;55035;47.792;8.724;2022-07-23T00:02:37;18.08;;;11.80;;
68212;SDS011;55035;47.792;8.724;2022-07-23T00:05:04;17.98;;;12.30;;
68212;SDS011;55035;47.792;8.724;2022-07-23T00:07:30;18.38;;;12.80;;
68212;SDS011;55035;47.792;8.724;2022-07-23T00:09:59;16.58;;;11.85;;
68212;SDS011;55035;47.792;8.724;2022-07-23T00:12:25;18.67;;;13.02;;
68212;SDS011;55035;47.792;8.724;2022-07-23T00:14:52;18.30;;;12.50;;
68212;SDS011;55035;47.792;8.724;2022-07-23T00:17:19;18.05;;;12.50;;
68212;SDS011;55035;47.792;8.724;2022-07-23T00:19:46;18.48;;;12.65;;
68212;SDS011;55035;47.792;8.724;2022-07-23T00:22:13;17.67;;;12.70;;
68212;SDS011;55035;47.792;8.724;2022-07-23T00:24:40;17.13;;;11.60;;
68212;SDS011;55035;47.792;8.724;2022-07-23T00:27:08;16.83;;;11.73;;
68212;SDS011;55035;47.792;8.724;2022-07-23T00:29:34;16.88;;;12.35;;
68212;SDS011;55035;47.792;8.724;2022-07-23T00:32:01;16.98;;;12.23;;
68212;SDS011;55035;47.792;8.724;2022-07-23T00:34:28;16.55;;;11.73;;
68212;SDS011;55035;47.792;8.724;2022-07-23T00:36:55;16.27;;;11.63;;
68212;SDS011;55035;47.792;8.724;2022-07-23T00:39:22;17.58;;;12.15;;
68212;SDS011;55035;47.792;8.724;2022-07-23T00:41:49;17.97;;;12.10;;
68212;SDS011;55035;47.792;8.724;2022-07-23T00:44:18;16.67;;;12.40;;
68212;SDS011;55035;47.792;8.724;2022-07-23T00:46:45;17.00;;;12.77;;
68212;SDS011;55035;47.792;8.724;2022-07-23T00:49:12;17.98;;;12.60;;
68212;SDS011;55035;47.792;8.724;2022-07-23T00:51:40;16.70;;;12.10;;
68212;SDS011;55035;47.792;8.724;2022-07-23T00:54:06;17.98;;;13.02;;
68212;SDS011;55035;47.792;8.724;2022-07-23T00:56:33;18.05;;;13.15;;
68212;SDS011;55035;47.792;8.724;2022-07-23T00:59:00;18.10;;;13.50;;
68212;SDS011;55035;47.792;8.724;2022-07-23T01:01:29;19.05;;;14.02;;
68212;SDS011;55035;47.792;8.724;2022-07-23T01:03:56;19.63;;;14.38;;
68212;SDS011;55035;47.792;8.724;2022-07-23T01:06:22;19.67;;;14.40;;
68212;SDS011;55035;47.792;8.724;2022-07-23T01:08:49;20.85;;;15.30;;
68212;SDS011;55035;47.792;8.724;2022-07-23T01:11:16;22.23;;;15.88;;
68212;SDS011;55035;47.792;8.724;2022-07-23T01:13:44;19.55;;;13.57;;
68212;SDS011;55035;47.792;8.724;2022-07-23T01:16:11;20.17;;;13.48;;
68212;SDS011;55035;47.792;8.724;2022-07-23T01:18:40;20.80;;;14.80;;
68212;SDS011;55035;47.792;8.724;2022-07-23T01:21:06;19.73;;;13.50;;
68212;SDS011;55035;47.792;8.724;2022-07-23T01:23:36;18.88;;;14.18;;
68212;SDS011;55035;47.792;8.724;2022-07-23T01:26:03;22.05;;;14.93;;
68212;SDS011;55035;47.792;8.724;2022-07-23T01:28:30;22.92;;;15.30;;
68212;SDS011;55035;47.792;8.724;2022-07-23T01:30:59;21.07;;;15.50;;
68212;SDS011;55035;47.792;8.724;2022-07-23T01:33:30;21.30;;;16.13;;
68212;SDS011;55035;47.792;8.724;2022-07-23T01:35:57;20.08;;;14.52;;
68212;SDS011;55035;47.792;8.724;2022-07-23T01:38:25;19.73;;;14.60;;
68212;SDS011;55035;47.792;8.724;2022-07-23T01:40:53;21.23;;;15.40;;
68212;SDS011;55035;47.792;8.724;2022-07-23T01:43:21;21.43;;;15.37;;
68212;SDS011;55035;47.792;8.724;2022-07-23T01:45:47;20.38;;;14.70;;
68212;SDS011;55035;47.792;8.724;2022-07-23T01:48:14;19.83;;;14.13;;
68212;SDS011;55035;47.792;8.724;2022-07-23T01:50:55;20.45;;;13.02;;
68212;SDS011;55035;47.792;8.724;2022-07-23T01:53:51;20.37;;;14.73;;
68212;SDS011;55035;47.792;8.724;2022-07-23T01:56:19;18.63;;;13.50;;
68212;SDS011;55035;47.792;8.724;2022-07-23T01:58:46;19.08;;;13.57;;
68212;SDS011;55035;47.792;8.724;2022-07-23T02:01:13;19.27;;;14.03;;
68212;SDS011;55035;47.792;8.724;2022-07-23T02:03:40;20.45;;;14.18;;
68212;SDS011;55035;47.792;8.724;2022-07-23T02:06:08;19.08;;;14.40;;
68212;SDS011;55035;47.792;8.724;2022-07-23T02:08:35;19.40;;;14.18;;
68212;SDS011;55035;47.792;8.724;2022-07-23T02:11:02;19.77;;;14.60;;
68212;SDS011;55035;47.792;8.724;2022-07-23T02:13:30;20.23;;;15.15;;
68212;SDS011;55035;47.792;8.724;2022-07-23T02:15:57;20.60;;;14.90;;
68212;SDS011;55035;47.792;8.724;2022-07-23T02:18:24;20.23;;;15.07;;
68212;SDS011;55035;47.792;8.724;2022-07-23T02:20:51;21.08;;;15.13;;
68212;SDS011;55035;47.792;8.724;2022-07-23T02:23:17;21.52;;;15.05;;
68212;SDS011;55035;47.792;8.724;2022-07-23T02:25:44;23.55;;;16.80;;
68212;SDS011;55035;47.792;8.724;2022-07-23T02:28:11;23.50;;;16.57;;
68212;SDS011;55035;47.792;8.724;2022-07-23T02:30:41;21.90;;;15.52;;
68212;SDS011;55035;47.792;8.724;2022-07-23T02:33:09;19.95;;;15.07;;
68212;SDS011;55035;47.792;8.724;2022-07-23T02:35:38;19.65;;;14.43;;
68212;SDS011;55035;47.792;8.724;2022-07-23T02:38:06;20.98;;;14.93;;
68212;SDS011;55035;47.792;8.724;2022-07-23T02:40:34;20.40;;;14.93;;
68212;SDS011;55035;47.792;8.724;2022-07-23T02:43:01;20.58;;;14.60;;
68212;SDS011;55035;47.792;8.724;2022-07-23T02:45:28;18.63;;;13.70;;
68212;SDS011;55035;47.792;8.724;2022-07-23T02:47:56;21.50;;;14.73;;
68212;SDS011;55035;47.792;8.724;2022-07-23T02:50:23;19.75;;;13.82;;
68212;SDS011;55035;47.792;8.724;2022-07-23T02:52:53;19.55;;;13.02;;
68212;SDS011;55035;47.792;8.724;2022-07-23T02:55:20;19.53;;;13.30;;
68212;SDS011;55035;47.792;8.724;2022-07-23T02:57:47;18.10;;;12.80;;
68212;SDS011;55035;47.792;8.724;2022-07-23T03:00:14;17.75;;;13.32;;
68212;SDS011;55035;47.792;8.724;2022-07-23T03:02:41;20.45;;;14.27;;
68212;SDS011;55035;47.792;8.724;2022-07-23T03:05:09;20.17;;;14.38;;
68212;SDS011;55035;47.792;8.724;2022-07-23T03:07:38;20.30;;;13.07;;
68212;SDS011;55035;47.792;8.724;2022-07-23T03:10:05;20.60;;;13.52;;
68212;SDS011;55035;47.792;8.724;2022-07-23T03:12:31;17.52;;;13.07;;
68212;SDS011;55035;47.792;8.724;2022-07-23T03:14:58;19.23;;;12.98;;
68212;SDS011;55035;47.792;8.724;2022-07-23T03:17:26;19.65;;;13.80;;
68212;SDS011;55035;47.792;8.724;2022-07-23T03:19:53;18.50;;;13.32;;
68212;SDS011;55035;47.792;8.724;2022-07-23T03:22:21;19.20;;;13.03;;
68212;SDS011;55035;47.792;8.724;2022-07-23T03:24:48;18.60;;;13.20;;
68212;SDS011;55035;47.792;8.724;2022-07-23T03:27:31;17.25;;;13.13;;
68212;SDS011;55035;47.792;8.724;2022-07-23T03:29:58;18.27;;;13.20;;
68212;SDS011;55035;47.792;8.724;2022-07-23T03:32:26;19.08;;;12.73;;
68212;SDS011;55035;47.792;8.724;2022-07-23T03:34:53;19.20;;;12.48;;
68212;SDS011;55035;47.792;8.724;2022-07-23T03:37:20;20.92;;;13.05;;
68212;SDS011;55035;47.792;8.724;2022-07-23T03:39:48;18.87;;;13.90;;
68212;SDS011;55035;47.792;8.724;2022-07-23T03:42:15;19.57;;;13.40;;
68212;SDS011;55035;47.792;8.724;2022-07-23T03:44:44;17.80;;;12.38;;
68212;SDS011;55035;47.792;8.724;2022-07-23T03:47:11;18.33;;;12.60;;
68212;SDS011;55035;47.792;8.724;2022-07-23T03:49:38;20.65;;;13.35;;
68212;SDS011;55035;47.792;8.724;2022-07-23T03:52:05;19.35;;;13.68;;
68212;SDS011;55035;47.792;8.724;2022-07-23T03:54:32;20.45;;;13.18;;
68212;SDS011;55035;47.792;8.724;2022-07-23T03:57:00;18.73;;;13.40;;
68212;SDS011;55035;47.792;8.724;2022-07-23T03:59:28;20.80;;;13.70;;
68212;SDS011;55035;47.792;8.724;2022-07-23T04:01:54;19.45;;;13.80;;
68212;SDS011;55035;47.792;8.724;2022-07-23T04:04:21;19.25;;;13.65;;
68212;SDS011;55035;47.792;8.724;2022-07-23T04:06:48;20.73;;;13.03;;
68212;SDS011;55035;47.792;8.724;2022-07-23T04:09:15;20.80;;;13.32;;
68212;SDS011;55035;47.792;8.724;2022-07-23T04:11:42;19.63;;;13.80;;
68212;SDS011;55035;47.792;8.724;2022-07-23T04:14:10;21.27;;;14.10;;
68212;SDS011;55035;47.792;8.724;2022-07-23T04:16:37;30.80;;;13.93;;
68212;SDS011;55035;47.792;8.724;2022-07-23T04:19:04;22.10;;;15.52;;
68212;SDS011;55035;47.792;8.724;2022-07-23T04:21:37;20.57;;;13.90;;
68212;SDS011;55035;47.792;8.724;2022-07-23T04:24:04;21.58;;;13.38;;
68212;SDS011;55035;47.792;8.724;2022-07-23T04:26:32;20.27;;;13.98;;
68212;SDS011;55035;47.792;8.724;2022-07-23T04:28:59;20.77;;;14.10;;
68212;SDS011;55035;47.792;8.724;2022-07-23T04:31:27;20.10;;;14.15;;
68212;SDS011;55035;47.792;8.724;2022-07-23T04:33:54;21.52;;;14.13;;
68212;SDS011;55035;47.792;8.724;2022-07-23T04:36:21;22.13;;;14.57;;
68212;SDS011;55035;47.792;8.724;2022-07-23T04:38:48;21.83;;;14.48;;
68212;SDS011;55035;47.792;8.724;2022-07-23T04:41:15;21.20;;;14.88;;
68212;SDS011;55035;47.792;8.724;2022-07-23T04:43:41;20.80;;;14.02;;
68212;SDS011;55035;47.792;8.724;2022-07-23T04:46:08;17.95;;;12.75;;
68212;SDS011;55035;47.792;8.724;2022-07-23T04:48:44;20.05;;;13.60;;
68212;SDS011;55035;47.792;8.724;2022-07-23T04:51:11;17.83;;;12.23;;
68212;SDS011;55035;47.792;8.724;2022-07-23T04:53:37;17.30;;;12.70;;
68212;SDS011;55035;47.792;8.724;2022-07-23T04:56:05;20.70;;;14.80;;
68212;SDS011;55035;47.792;8.724;2022-07-23T04:58:32;18.35;;;12.43;;
68212;SDS011;55035;47.792;8.724;2022-07-23T05:00:59;16.52;;;11.50;;
68212;SDS011;55035;47.792;8.724;2022-07-23T05:03:27;17.00;;;11.73;;
68212;SDS011;55035;47.792;8.724;2022-07-23T05:05:55;17.37;;;11.90;;
68212;SDS011;55035;47.792;8.724;2022-07-23T05:08:22;19.33;;;13.18;;
68212;SDS011;55035;47.792;8.724;2022-07-23T05:10:52;19.75;;;13.50;;
68212;SDS011;55035;47.792;8.724;2022-07-23T05:13:20;20.67;;;13.70;;
68212;SDS011;55035;47.792;8.724;2022-07-23T05:15:50;17.20;;;12.25;;
68212;SDS011;55035;47.792;8.724;2022-07-23T05:18:16;18.30;;;12.60;;
68212;SDS011;55035;47.792;8.724;2022-07-23T05:20:43;17.77;;;12.50;;
68212;SDS011;55035;47.792;8.724;2022-07-23T05:23:15;16.77;;;11.60;;
68212;SDS011;55035;47.792;8.724;2022-07-23T05:25:42;18.27;;;12.52;;
68212;SDS011;55035;47.792;8.724;2022-07-23T05:28:09;18.35;;;13.10;;
68212;SDS011;55035;47.792;8.724;2022-07-23T05:30:37;20.83;;;13.43;;
68212;SDS011;55035;47.792;8.724;2022-07-23T05:33:06;19.20;;;13.47;;
68212;SDS011;55035;47.792;8.724;2022-07-23T05:35:34;19.90;;;13.27;;
68212;SDS011;55035;47.792;8.724;2022-07-23T05:38:32;17.80;;;12.90;;
68212;SDS011;55035;47.792;8.724;2022-07-23T05:41:01;18.10;;;12.98;;
68212;SDS011;55035;47.792;8.724;2022-07-23T05:43:28;17.88;;;12.88;;
68212;SDS011;55035;47.792;8.724;2022-07-23T05:45:57;19.40;;;13.10;;
68212;SDS011;55035;47.792;8.724;2022-07-23T05:48:24;18.35;;;11.98;;
68212;SDS011;55035;47.792;8.724;2022-07-23T05:51:11;16.23;;;10.88;;
68212;SDS011;55035;47.792;8.724;2022-07-23T05:53:39;14.63;;;10.07;;
68212;SDS011;55035;47.792;8.724;2022-07-23T05:56:14;17.93;;;11.93;;
68212;SDS011;55035;47.792;8.724;2022-07-23T05:58:42;14.40;;;9.93;;
68212;SDS011;55035;47.792;8.724;2022-07-23T06:01:09;15.20;;;10.00;;
68212;SDS011;55035;47.792;8.724;2022-07-23T06:03:44;15.80;;;10.60;;
68212;SDS011;55035;47.792;8.724;2022-07-23T06:06:11;14.40;;;9.98;;
68212;SDS011;55035;47.792;8.724;2022-07-23T06:08:39;14.73;;;10.27;;
68212;SDS011;55035;47.792;8.724;2022-07-23T06:11:07;14.65;;;10.05;;
68212;SDS011;55035;47.792;8.724;2022-07-23T06:13:35;15.05;;;10.25;;
68212;SDS011;55035;47.792;8.724;2022-07-23T06:16:02;16.00;;;10.33;;
68212;SDS011;55035;47.792;8.724;2022-07-23T06:18:29;15.00;;;10.68;;
68212;SDS011;55035;47.792;8.724;2022-07-23T06:20:56;15.85;;;10.63;;
68212;SDS011;55035;47.792;8.724;2022-07-23T06:23:22;16.83;;;10.15;;
68212;SDS011;55035;47.792;8.724;2022-07-23T06:25:51;14.02;;;9.77;;
68212;SDS011;55035;47.792;8.724;2022-07-23T06:28:19;14.90;;;9.57;;
68212;SDS011;55035;47.792;8.724;2022-07-23T06:30:46;15.18;;;9.85;;
68212;SDS011;55035;47.792;8.724;2022-07-23T06:33:13;13.13;;;9.30;;
68212;SDS011;55035;47.792;8.724;2022-07-23T06:35:40;14.90;;;9.90;;
68212;SDS011;55035;47.792;8.724;2022-07-23T06:38:07;14.00;;;9.40;;
68212;SDS011;55035;47.792;8.724;2022-07-23T06:40:34;13.30;;;9.30;;
68212;SDS011;55035;47.792;8.724;2022-07-23T06:43:03;14.13;;;9.25;;
68212;SDS011;55035;47.792;8.724;2022-07-23T06:45:29;13.07;;;8.80;;
68212;SDS011;55035;47.792;8.724;2022-07-23T06:47:57;14.55;;;9.27;;
68212;SDS011;55035;47.792;8.724;2022-07-23T06:50:24;13.15;;;8.93;;
68212;SDS011;55035;47.792;8.724;2022-07-23T06:52:51;12.93;;;8.90;;
68212;SDS011;55035;47.792;8.724;2022-07-23T06:55:18;15.43;;;9.70;;
68212;SDS011;55035;47.792;8.724;2022-07-23T06:57:45;13.88;;;9.55;;
68212;SDS011;55035;47.792;8.724;2022-07-23T07:00:14;14.30;;;10.23;;
68212;SDS011;55035;47.792;8.724;2022-07-23T07:02:41;15.18;;;10.07;;
68212;SDS011;55035;47.792;8.724;2022-07-23T07:05:08;14.27;;;9.48;;
68212;SDS011;55035;47.792;8.724;2022-07-23T07:07:35;15.00;;;10.40;;
68212;SDS011;55035;47.792;8.724;2022-07-23T07:10:02;16.80;;;10.88;;
68212;SDS011;55035;47.792;8.724;2022-07-23T07:12:29;16.33;;;11.57;;
68212;SDS011;55035;47.792;8.724;2022-07-23T07:14:55;17.45;;;12.25;;
68212;SDS011;55035;47.792;8.724;2022-07-23T07:17:24;16.77;;;12.20;;
68212;SDS011;55035;47.792;8.724;2022-07-23T07:19:53;17.75;;;12.98;;
68212;SDS011;55035;47.792;8.724;2022-07-23T07:22:20;17.73;;;13.38;;
68212;SDS011;55035;47.792;8.724;2022-07-23T07:24:47;19.15;;;13.43;;
68212;SDS011;55035;47.792;8.724;2022-07-23T07:27:14;20.35;;;13.80;;
68212;SDS011;55035;47.792;8.724;2022-07-23T07:29:41;20.33;;;14.25;;
68212;SDS011;55035;47.792;8.724;2022-07-23T07:32:08;19.60;;;14.40;;
68212;SDS011;55035;47.792;8.724;2022-07-23T07:34:36;20.15;;;14.07;;
68212;SDS011;55035;47.792;8.724;2022-07-23T07:37:02;20.20;;;14.18;;
68212;SDS011;55035;47.792;8.724;2022-07-23T07:39:29;19.15;;;14.60;;
68212;SDS011;55035;47.792;8.724;2022-07-23T07:41:56;21.23;;;14.85;;
68212;SDS011;55035;47.792;8.724;2022-07-23T07:44:23;19.15;;;12.82;;
68212;SDS011;55035;47.792;8.724;2022-07-23T07:46:50;19.30;;;13.75;;
68212;SDS011;55035;47.792;8.724;2022-07-23T07:49:17;18.75;;;13.55;;
68212;SDS011;55035;47.792;8.724;2022-07-23T07:51:46;19.08;;;12.98;;
68212;SDS011;55035;47.792;8.724;2022-07-23T07:54:12;18.50;;;12.65;;
68212;SDS011;55035;47.792;8.724;2022-07-23T07:56:39;19.65;;;13.20;;
68212;SDS011;55035;47.792;8.724;2022-07-23T07:59:07;19.73;;;13.27;;
68212;SDS011;55035;47.792;8.724;2022-07-23T08:01:33;18.25;;;12.85;;
68212;SDS011;55035;47.792;8.724;2022-07-23T08:04:00;17.77;;;13.07;;
68212;SDS011;55035;47.792;8.724;2022-07-23T08:06:27;18.65;;;13.98;;
68212;SDS011;55035;47.792;8.724;2022-07-23T08:08:55;19.42;;;13.90;;
68212;SDS011;55035;47.792;8.724;2022-07-23T08:11:22;20.05;;;14.20;;
68212;SDS011;55035;47.792;8.724;2022-07-23T08:13:49;17.80;;;13.23;;
68212;SDS011;55035;47.792;8.724;2022-07-23T08:16:16;19.33;;;13.30;;
68212;SDS011;55035;47.792;8.724;2022-07-23T08:18:43;17.27;;;12.60;;
68212;SDS011;55035;47.792;8.724;2022-07-23T08:21:10;19.55;;;13.00;;
68212;SDS011;55035;47.792;8.724;2022-07-23T08:23:37;18.85;;;12.60;;
68212;SDS011;55035;47.792;8.724;2022-07-23T08:26:05;17.27;;;12.17;;
68212;SDS011;55035;47.792;8.724;2022-07-23T08:28:32;16.13;;;11.75;;
68212;SDS011;55035;47.792;8.724;2022-07-23T08:30:59;15.90;;;11.90;;
68212;SDS011;55035;47.792;8.724;2022-07-23T08:33:26;16.95;;;12.02;;
68212;SDS011;55035;47.792;8.724;2022-07-23T08:35:53;15.60;;;11.10;;
68212;SDS011;55035;47.792;8.724;2022-07-23T08:38:21;16.70;;;10.73;;
68212;SDS011;55035;47.792;8.724;2022-07-23T08:40:49;15.83;;;10.63;;
68212;SDS011;55035;47.792;8.724;2022-07-23T08:43:18;16.63;;;10.93;;
68212;SDS011;55035;47.792;8.724;2022-07-23T08:45:46;15.83;;;11.40;;
68212;SDS011;55035;47.792;8.724;2022-07-23T08:48:13;15.25;;;10.75;;
68212;SDS011;55035;47.792;8.724;2022-07-23T08:50:42;14.20;;;10.53;;
68212;SDS011;55035;47.792;8.724;2022-07-23T08:53:09;16.40;;;10.90;;
68212;SDS011;55035;47.792;8.724;2022-07-23T08:55:36;15.48;;;10.60;;
68212;SDS011;55035;47.792;8.724;2022-07-23T08:58:02;14.63;;;10.55;;
68212;SDS011;55035;47.792;8.724;2022-07-23T09:00:31;16.55;;;11.10;;
68212;SDS011;55035;47.792;8.724;2022-07-23T09:02:58;15.90;;;11.47;;
68212;SDS011;55035;47.792;8.724;2022-07-23T09:05:25;15.90;;;11.02;;
68212;SDS011;55035;47.792;8.724;2022-07-23T09:08:08;16.58;;;11.20;;
68212;SDS011;55035;47.792;8.724;2022-07-23T09:10:49;16.98;;;11.38;;
68212;SDS011;55035;47.792;8.724;2022-07-23T09:13:31;17.08;;;11.70;;
68212;SDS011;55035;47.792;8.724;2022-07-23T09:16:00;15.15;;;11.15;;
68212;SDS011;55035;47.792;8.724;2022-07-23T09:18:31;15.95;;;11.02;;
68212;SDS011;55035;47.792;8.724;2022-07-23T09:21:11;17.20;;;11.90;;
68212;SDS011;55035;47.792;8.724;2022-07-23T09:23:39;17.47;;;11.87;;
68212;SDS011;55035;47.792;8.724;2022-07-23T09:28:56;18.35;;;12.68;;
68212;SDS011;55035;47.792;8.724;2022-07-23T09:31:25;16.13;;;12.00;;
68212;SDS011;55035;47.792;8.724;2022-07-23T09:34:01;17.33;;;12.52;;
68212;SDS011;55035;47.792;8.724;2022-07-23T09:36:33;18.35;;;12.88;;
68212;SDS011;55035;47.792;8.724;2022-07-23T09:39:00;18.10;;;12.65;;
68212;SDS011;55035;47.792;8.724;2022-07-23T09:41:33;17.63;;;12.55;;
68212;SDS011;55035;47.792;8.724;2022-07-23T09:44:06;18.27;;;12.47;;
68212;SDS011;55035;47.792;8.724;2022-07-23T09:46:34;17.65;;;11.95;;
68212;SDS011;55035;47.792;8.724;2022-07-23T09:49:09;16.98;;;11.73;;
68212;SDS011;55035;47.792;8.724;2022-07-23T09:51:40;16.15;;;11.27;;
68212;SDS011;55035;47.792;8.724;2022-07-23T09:54:20;16.42;;;11.50;;
68212;SDS011;55035;47.792;8.724;2022-07-23T09:56:47;15.85;;;11.10;;
68212;SDS011;55035;47.792;8.724;2022-07-23T09:59:14;17.53;;;11.70;;
68212;SDS011;55035;47.792;8.724;2022-07-23T10:01:45;16.45;;;11.57;;
68212;SDS011;55035;47.792;8.724;2022-07-23T10:04:12;15.38;;;11.55;;
68212;SDS011;55035;47.792;8.724;2022-07-23T10:07:00;17.88;;;11.93;;
68212;SDS011;55035;47.792;8.724;2022-07-23T10:09:46;17.33;;;11.57;;
68212;SDS011;55035;47.792;8.724;2022-07-23T10:12:33;14.88;;;11.50;;
68212;SDS011;55035;47.792;8.724;2022-07-23T10:15:15;15.75;;;11.05;;
68212;SDS011;55035;47.792;8.724;2022-07-23T10:17:43;15.88;;;11.60;;
68212;SDS011;55035;47.792;8.724;2022-07-23T10:20:10;16.40;;;11.43;;
68212;SDS011;55035;47.792;8.724;2022-07-23T10:22:38;15.95;;;11.20;;
68212;SDS011;55035;47.792;8.724;2022-07-23T10:25:10;15.27;;;11.18;;
68212;SDS011;55035;47.792;8.724;2022-07-23T10:27:58;16.48;;;11.85;;
68212;SDS011;55035;47.792;8.724;2022-07-23T10:30:34;15.70;;;11.40;;
68212;SDS011;55035;47.792;8.724;2022-07-23T10:33:14;16.60;;;11.57;;
68212;SDS011;55035;47.792;8.724;2022-07-23T10:35:43;16.35;;;11.75;;
68212;SDS011;55035;47.792;8.724;2022-07-23T10:38:15;16.30;;;11.45;;
68212;SDS011;55035;47.792;8.724;2022-07-23T10:40:55;17.33;;;12.15;;
68212;SDS011;55035;47.792;8.724;2022-07-23T10:43:22;15.88;;;11.65;;
68212;SDS011;55035;47.792;8.724;2022-07-23T10:45:49;16.38;;;11.43;;
68212;SDS011;55035;47.792;8.724;2022-07-23T10:48:17;16.80;;;11.40;;
68212;SDS011;55035;47.792;8.724;2022-07-23T10:53:27;15.70;;;11.00;;
68212;SDS011;55035;47.792;8.724;2022-07-23T10:55:54;15.82;;;11.75;;
68212;SDS011;55035;47.792;8.724;2022-07-23T10:58:21;14.43;;;11.10;;
68212;SDS011;55035;47.792;8.724;2022-07-23T11:00:49;14.63;;;11.40;;
68212;SDS011;55035;47.792;8.724;2022-07-23T11:03:34;15.48;;;11.20;;
68212;SDS011;55035;47.792;8.724;2022-07-23T11:06:03;15.15;;;11.10;;
68212;SDS011;55035;47.792;8.724;2022-07-23T11:08:30;15.70;;;11.07;;
68212;SDS011;55035;47.792;8.724;2022-07-23T11:11:10;15.07;;;10.87;;
68212;SDS011;55035;47.792;8.724;2022-07-23T11:13:38;15.38;;;11.35;;
68212;SDS011;55035;47.792;8.724;2022-07-23T11:16:06;14.63;;;11.32;;
68212;SDS011;55035;47.792;8.724;2022-07-23T11:24:09;15.75;;;12.10;;
68212;SDS011;55035;47.792;8.724;2022-07-23T11:26:46;15.48;;;11.18;;
68212;SDS011;55035;47.792;8.724;2022-07-23T11:32:01;14.77;;;10.65;;
68212;SDS011;55035;47.792;8.724;2022-07-23T11:34:29;14.85;;;11.38;;
68212;SDS011;55035;47.792;8.724;2022-07-23T11:36:57;14.20;;;10.80;;
68212;SDS011;55035;47.792;8.724;2022-07-23T11:39:26;14.70;;;11.17;;
68212;SDS011;55035;47.792;8.724;2022-07-23T11:41:53;14.63;;;10.80;;
68212;SDS011;55035;47.792;8.724;2022-07-23T11:44:29;15.27;;;11.20;;
68212;SDS011;55035;47.792;8.724;2022-07-23T11:46:56;14.03;;;10.87;;
68212;SDS011;55035;47.792;8.724;2022-07-23T11:49:24;14.65;;;10.90;;
68212;SDS011;55035;47.792;8.724;2022-07-23T11:52:02;14.63;;;11.07;;
68212;SDS011;55035;47.792;8.724;2022-07-23T11:54:31;14.18;;;10.63;;
68212;SDS011;55035;47.792;8.724;2022-07-23T11:56:58;14.73;;;10.55;;
68212;SDS011;55035;47.792;8.724;2022-07-23T11:59:26;14.15;;;10.90;;
68212;SDS011;55035;47.792;8.724;2022-07-23T12:01:56;14.80;;;10.15;;
68212;SDS011;55035;47.792;8.724;2022-07-23T12:04:24;14.43;;;10.80;;
68212;SDS011;55035;47.792;8.724;2022-07-23T12:06:51;13.45;;;10.82;;
68212;SDS011;55035;47.792;8.724;2022-07-23T12:09:18;14.75;;;10.80;;
68212;SDS011;55035;47.792;8.724;2022-07-23T12:11:57;14.70;;;10.70;;
68212;SDS011;55035;47.792;8.724;2022-07-23T12:14:24;14.20;;;10.70;;
68212;SDS011;55035;47.792;8.724;2022-07-23T12:19:42;15.37;;;11.03;;
68212;SDS011;55035;47.792;8.724;2022-07-23T12:22:08;15.45;;;11.38;;
68212;SDS011;55035;47.792;8.724;2022-07-23T12:27:19;14.27;;;10.82;;
68212;SDS011;55035;47.792;8.724;2022-07-23T12:29:46;14.73;;;10.90;;
68212;SDS011;55035;47.792;8.724;2022-07-23T12:32:16;14.70;;;11.30;;
68212;SDS011;55035;47.792;8.724;2022-07-23T12:34:43;14.77;;;10.53;;
68212;SDS011;55035;47.792;8.724;2022-07-23T12:37:24;14.32;;;10.57;;
68212;SDS011;55035;47.792;8.724;2022-07-23T12:39:51;13.98;;;10.18;;
68212;SDS011;55035;47.792;8.724;2022-07-23T12:42:19;13.50;;;10.32;;
68212;SDS011;55035;47.792;8.724;2022-07-23T12:45:02;15.07;;;10.60;;
68212;SDS011;55035;47.792;8.724;2022-07-23T12:47:29;14.37;;;10.97;;
68212;SDS011;55035;47.792;8.724;2022-07-23T12:49:56;13.73;;;10.95;;
68212;SDS011;55035;47.792;8.724;2022-07-23T12:52:22;15.05;;;10.95;;
68212;SDS011;55035;47.792;8.724;2022-07-23T12:54:49;14.27;;;10.60;;
68212;SDS011;55035;47.792;8.724;2022-07-23T12:57:16;14.73;;;11.00;;
68212;SDS011;55035;47.792;8.724;2022-07-23T12:59:44;14.98;;;10.82;;
68212;SDS011;55035;47.792;8.724;2022-07-23T13:02:11;14.60;;;11.18;;
68212;SDS011;55035;47.792;8.724;2022-07-23T13:04:39;14.88;;;10.43;;
68212;SDS011;55035;47.792;8.724;2022-07-23T13:07:06;15.70;;;11.75;;
68212;SDS011;55035;47.792;8.724;2022-07-23T13:09:33;14.43;;;10.93;;
68212;SDS011;55035;47.792;8.724;2022-07-23T13:12:00;14.50;;;10.93;;
68212;SDS011;55035;47.792;8.724;2022-07-23T13:14:27;15.00;;;11.75;;
68212;SDS011;55035;47.792;8.724;2022-07-23T13:16:55;15.43;;;11.53;;
68212;SDS011;55035;47.792;8.724;2022-07-23T13:19:22;14.18;;;11.00;;
68212;SDS011;55035;47.792;8.724;2022-07-23T13:21:49;15.65;;;11.38;;
68212;SDS011;55035;47.792;8.724;2022-07-23T13:24:16;14.20;;;10.85;;
68212;SDS011;55035;47.792;8.724;2022-07-23T13:26:43;15.30;;;11.03;;
68212;SDS011;55035;47.792;8.724;2022-07-23T13:29:11;14.73;;;11.40;;
68212;SDS011;55035;47.792;8.724;2022-07-23T13:31:38;16.07;;;11.07;;
68212;SDS011;55035;47.792;8.724;2022-07-23T13:34:06;14.05;;;10.65;;
68212;SDS011;55035;47.792;8.724;2022-07-23T13:36:34;14.67;;;10.67;;
68212;SDS011;55035;47.792;8.724;2022-07-23T13:39:01;15.43;;;11.43;;
68212;SDS011;55035;47.792;8.724;2022-07-23T13:41:28;14.13;;;10.97;;
68212;SDS011;55035;47.792;8.724;2022-07-23T13:43:55;15.27;;;10.73;;
68212;SDS011;55035;47.792;8.724;2022-07-23T13:46:22;15.35;;;11.27;;
68212;SDS011;55035;47.792;8.724;2022-07-23T13:48:49;15.05;;;11.73;;
68212;SDS011;55035;47.792;8.724;2022-07-23T13:51:17;15.05;;;11.27;;
68212;SDS011;55035;47.792;8.724;2022-07-23T13:53:44;14.60;;;11.57;;
68212;SDS011;55035;47.792;8.724;2022-07-23T13:56:12;14.68;;;11.13;;
68212;SDS011;55035;47.792;8.724;2022-07-23T13:58:38;15.23;;;10.38;;
68212;SDS011;55035;47.792;8.724;2022-07-23T14:01:05;14.32;;;11.02;;
68212;SDS011;55035;47.792;8.724;2022-07-23T14:03:32;14.73;;;11.50;;
68212;SDS011;55035;47.792;8.724;2022-07-23T14:06:00;14.73;;;11.00;;
68212;SDS011;55035;47.792;8.724;2022-07-23T14:08:28;15.63;;;10.90;;
68212;SDS011;55035;47.792;8.724;2022-07-23T14:10:55;14.80;;;11.13;;
68212;SDS011;55035;47.792;8.724;2022-07-23T14:13:22;14.97;;;11.80;;
68212;SDS011;55035;47.792;8.724;2022-07-23T14:15:49;15.40;;;11.32;;
68212;SDS011;55035;47.792;8.724;2022-07-23T14:18:16;15.30;;;11.60;;
68212;SDS011;55035;47.792;8.724;2022-07-23T14:20:42;15.23;;;11.10;;
68212;SDS011;55035;47.792;8.724;2022-07-23T14:23:09;15.90;;;10.98;;
68212;SDS011;55035;47.792;8.724;2022-07-23T14:25:37;14.97;;;10.80;;
68212;SDS011;55035;47.792;8.724;2022-07-23T14:28:04;14.70;;;10.82;;
68212;SDS011;55035;47.792;8.724;2022-07-23T14:30:31;14.47;;;11.20;;
68212;SDS011;55035;47.792;8.724;2022-07-23T14:32:58;14.82;;;11.32;;
68212;SDS011;55035;47.792;8.724;2022-07-23T14:35:25;15.13;;;10.90;;
68212;SDS011;55035;47.792;8.724;2022-07-23T14:37:51;13.47;;;10.70;;
68212;SDS011;55035;47.792;8.724;2022-07-23T14:40:18;13.85;;;10.85;;
68212;SDS011;55035;47.792;8.724;2022-07-23T14:42:46;14.55;;;11.05;;
68212;SDS011;55035;47.792;8.724;2022-07-23T14:45:13;15.20;;;10.77;;
68212;SDS011;55035;47.792;8.724;2022-07-23T14:47:40;14.93;;;10.83;;